Osceola, Arkansas
Current Conditions -  °F | °C
As of 6:53 PM on Friday 24 Oct 2014 (Local Time) from KHKA Reporting Station
Clear Clear  
Wind Chill: 64°   Ceiling: Unl
Heat Index: 64°   Visibility: 10mi
Dew Point: 56°   Wind: 3mph
Humidity: 75%   Direction: 280°W
Pressure: 30.08"   Gusts: NA
Location:  35.71°N, 89.97°W
Report Text: KHKA 242353Z AUTO 28003KT 10SM CLR 18/13 A3008 RMK AO2 SLP185 T01780133 10244 20172 53002
Loading
Personal Weather Stations






























Interactive Weather Map
Tropical Storm Tracking
New forecast layout! Learn more

10-Day Weather Forecast

Advertisements
Track Severe Weather on mobile